Delta, Louisiana
Current Conditions -  °F | °C
As of 7:35 AM on Friday 28 Nov 2014 (Local Time) from KVKS Reporting Station
Clear Clear  
Wind Chill: 30°   Ceiling: Unl
Heat Index: 36°   Visibility: 10mi
Dew Point: 30°   Wind: 7mph
Humidity: 81%   Direction: 130°SE
Pressure: 30.43"   Gusts: NA
Location:  32.33°N, 90.93°W
Report Text: KVKS 281335Z AUTO 13006KT 10SM CLR 02/M01 A3043 RMK A01
Loading
Personal Weather Stations






























Interactive Weather Map New forecast layout! Learn more

10-Day Weather Forecast

Advertisements
Track Severe Weather on mobile